createdAt,value
2023-05-16T00:00:27.042Z,9.79
2023-05-16T00:02:55.228Z,9.41
2023-05-16T00:05:24.679Z,9.86
2023-05-16T00:07:52.503Z,9.97
2023-05-16T00:10:20.461Z,9.50
2023-05-16T00:12:51.712Z,9.39
2023-05-16T00:15:20.506Z,9.63
2023-05-16T00:17:49.706Z,9.97
2023-05-16T00:20:19.169Z,9.68
2023-05-16T00:22:48.452Z,9.41
2023-05-16T00:25:16.459Z,9.40
2023-05-16T00:27:44.309Z,9.58
2023-05-16T00:30:12.539Z,9.54
2023-05-16T00:32:40.512Z,9.71
2023-05-16T00:35:10.741Z,9.65
2023-05-16T00:37:38.817Z,8.89
2023-05-16T00:40:08.834Z,9.37
2023-05-16T00:42:37.244Z,9.66
2023-05-16T00:45:08.768Z,9.17
2023-05-16T00:47:36.856Z,9.15
2023-05-16T00:50:05.776Z,9.37
2023-05-16T00:52:34.091Z,8.65
2023-05-16T00:55:04.037Z,9.11
2023-05-16T00:57:33.350Z,9.06
2023-05-16T01:00:01.249Z,9.46
2023-05-16T01:02:29.437Z,8.93
2023-05-16T01:04:57.325Z,9.27
2023-05-16T01:07:25.148Z,9.34
2023-05-16T01:09:53.051Z,9.30
2023-05-16T01:12:24.711Z,9.20
2023-05-16T01:14:56.644Z,9.19
2023-05-16T01:17:25.069Z,9.17
2023-05-16T01:19:56.519Z,9.08
2023-05-16T01:22:29.800Z,8.85
2023-05-16T01:25:02.102Z,8.51
2023-05-16T01:27:31.344Z,8.35
2023-05-16T01:29:59.141Z,8.48
2023-05-16T01:32:27.088Z,8.91
2023-05-16T01:34:54.987Z,8.75
2023-05-16T01:37:25.328Z,8.64
2023-05-16T01:39:54.006Z,8.93
2023-05-16T01:42:22.374Z,9.21
2023-05-16T01:44:53.617Z,9.27
2023-05-16T01:47:21.769Z,9.13
2023-05-16T01:49:51.823Z,9.13
2023-05-16T01:52:20.789Z,9.42
2023-05-16T01:54:49.105Z,9.53
2023-05-16T01:57:17.028Z,9.39
2023-05-16T01:59:45.906Z,9.25
2023-05-16T02:02:15.245Z,9.10
2023-05-16T02:04:43.159Z,9.12
2023-05-16T02:07:11.250Z,9.47
2023-05-16T02:09:39.100Z,9.81
2023-05-16T02:12:10.786Z,9.76
2023-05-16T02:14:38.696Z,9.89
2023-05-16T02:17:07.793Z,9.69
2023-05-16T02:19:37.079Z,9.98
2023-05-16T02:22:04.947Z,9.95
2023-05-16T02:24:34.417Z,10.03
2023-05-16T02:27:02.660Z,9.99
2023-05-16T02:29:30.694Z,10.21
2023-05-16T02:31:58.540Z,10.20
2023-05-16T02:34:26.392Z,10.02
2023-05-16T02:36:55.747Z,9.46
2023-05-16T02:39:23.634Z,9.17
2023-05-16T02:41:52.465Z,9.13
2023-05-16T02:44:20.404Z,9.37
2023-05-16T02:46:48.315Z,9.64
2023-05-16T02:49:17.200Z,9.90
2023-05-16T02:51:46.049Z,9.91
2023-05-16T02:54:15.289Z,9.53
2023-05-16T02:56:43.061Z,9.75
2023-05-16T02:59:10.856Z,9.88
2023-05-16T03:01:38.724Z,9.13
2023-05-16T03:04:06.635Z,8.96
2023-05-16T03:06:34.578Z,8.97
2023-05-16T03:09:02.519Z,9.04
2023-05-16T03:11:31.727Z,9.24
2023-05-16T03:14:01.773Z,9.53
2023-05-16T03:16:29.904Z,9.75
2023-05-16T03:18:58.409Z,9.75
2023-05-16T03:21:26.261Z,10.04
2023-05-16T03:23:55.249Z,10.03
2023-05-16T03:26:23.764Z,10.03
2023-05-16T03:28:53.993Z,9.34
2023-05-16T03:31:21.866Z,8.85
2023-05-16T03:33:49.775Z,9.26
2023-05-16T03:36:17.686Z,9.48
2023-05-16T03:38:45.560Z,8.73
2023-05-16T03:41:13.372Z,8.75
2023-05-16T03:43:41.411Z,9.32
2023-05-16T03:46:10.720Z,9.60
2023-05-16T03:48:38.515Z,9.70
2023-05-16T03:51:06.562Z,9.62
2023-05-16T03:53:34.361Z,8.56
2023-05-16T03:56:02.183Z,8.51
2023-05-16T03:58:30.134Z,9.11
2023-05-16T04:00:57.954Z,9.35
2023-05-16T04:03:28.862Z,9.33
2023-05-16T04:05:56.988Z,8.90
2023-05-16T04:08:24.803Z,8.49
2023-05-16T04:10:52.647Z,8.70
2023-05-16T04:13:20.445Z,9.19
2023-05-16T04:15:48.353Z,9.36
2023-05-16T04:18:16.275Z,9.47
2023-05-16T04:20:47.677Z,9.13
2023-05-16T04:23:15.545Z,9.33
2023-05-16T04:25:43.380Z,9.49
2023-05-16T04:28:11.320Z,8.92
2023-05-16T04:30:39.204Z,8.97
2023-05-16T04:33:07.368Z,9.49
2023-05-16T04:35:35.405Z,9.85
2023-05-16T04:38:04.901Z,9.85
2023-05-16T04:40:33.172Z,9.62
2023-05-16T04:43:01.022Z,9.71
2023-05-16T04:45:29.270Z,9.91
2023-05-16T04:55:26.098Z,9.33
2023-05-16T04:57:54.211Z,9.36
2023-05-16T05:00:22.345Z,9.44
2023-05-16T05:02:50.306Z,9.63
2023-05-16T05:05:18.344Z,9.81
2023-05-16T05:07:46.768Z,9.88
2023-05-16T05:10:14.677Z,9.64
2023-05-16T05:12:43.818Z,9.51
2023-05-16T05:15:11.622Z,9.46
2023-05-16T05:17:39.476Z,9.60
2023-05-16T05:20:08.766Z,9.44
2023-05-16T05:22:36.545Z,9.43
2023-05-16T05:25:04.471Z,9.57
2023-05-16T05:27:32.256Z,9.55
2023-05-16T05:30:01.509Z,9.52
2023-05-16T05:32:29.338Z,9.58
2023-05-16T05:34:57.236Z,9.80
2023-05-16T05:37:25.536Z,9.60
2023-05-16T05:39:53.383Z,9.61
2023-05-16T05:42:21.257Z,9.66
2023-05-16T05:44:49.012Z,9.78
2023-05-16T05:47:19.353Z,9.66
2023-05-16T05:49:47.316Z,9.78
2023-05-16T05:52:15.125Z,9.77
2023-05-16T05:54:42.916Z,9.55
2023-05-16T05:57:10.933Z,9.22
2023-05-16T05:59:38.984Z,9.31
2023-05-16T06:02:07.485Z,9.40
2023-05-16T06:04:36.933Z,9.36
2023-05-16T06:07:04.998Z,9.44
2023-05-16T06:09:33.079Z,9.30
2023-05-16T06:12:01.386Z,9.09
2023-05-16T06:14:29.501Z,8.98
2023-05-16T06:16:57.770Z,8.89
2023-05-16T06:19:25.996Z,8.91
2023-05-16T06:21:55.702Z,9.04
2023-05-16T06:24:23.981Z,8.88
2023-05-16T06:26:52.529Z,8.88
2023-05-16T06:29:20.555Z,8.86
2023-05-16T06:31:48.738Z,8.86
2023-05-16T06:34:16.700Z,8.97
2023-05-16T06:36:44.958Z,9.06
2023-05-16T06:39:14.355Z,9.16
2023-05-16T06:41:42.364Z,8.99
2023-05-16T06:44:17.124Z,9.46
2023-05-16T06:46:45.310Z,9.25
2023-05-16T06:49:13.423Z,9.07
2023-05-16T06:51:41.722Z,8.79
2023-05-16T06:54:09.807Z,9.27
2023-05-16T06:56:39.158Z,8.86
2023-05-16T06:59:07.198Z,9.00
2023-05-16T07:01:35.209Z,9.05
2023-05-16T07:04:03.447Z,9.02
2023-05-16T07:06:31.589Z,9.22
2023-05-16T07:08:59.677Z,9.09
2023-05-16T07:11:27.618Z,9.43
2023-05-16T07:13:57.096Z,9.12
2023-05-16T07:16:28.440Z,9.20
2023-05-16T07:18:56.983Z,9.07
2023-05-16T07:21:25.026Z,9.29
2023-05-16T07:23:53.115Z,9.30
2023-05-16T07:26:23.387Z,9.03
2023-05-16T07:28:51.490Z,9.15
2023-05-16T07:31:20.983Z,9.31
2023-05-16T07:33:49.328Z,9.22
2023-05-16T07:36:17.888Z,9.53
2023-05-16T07:38:46.137Z,9.38
2023-05-16T07:41:14.095Z,9.63
2023-05-16T07:43:42.080Z,9.53
2023-05-16T07:46:10.230Z,9.46
2023-05-16T07:48:39.718Z,9.29
2023-05-16T07:51:07.769Z,9.26
2023-05-16T07:53:37.793Z,8.99
2023-05-16T07:56:06.930Z,9.27
2023-05-16T07:58:34.972Z,9.34
2023-05-16T08:01:03.056Z,9.40
2023-05-16T08:03:31.189Z,9.43
2023-05-16T08:06:00.845Z,9.64
2023-05-16T08:08:28.966Z,9.15
2023-05-16T08:10:57.322Z,9.25
2023-05-16T08:13:25.363Z,9.28
2023-05-16T08:15:56.491Z,9.43
2023-05-16T08:18:24.685Z,9.56
2023-05-16T08:20:52.794Z,9.58
2023-05-16T08:23:22.405Z,9.34
2023-05-16T08:25:50.474Z,9.37
2023-05-16T08:28:18.603Z,9.50
2023-05-16T08:30:48.062Z,10.07
2023-05-16T08:33:16.517Z,10.01
2023-05-16T08:35:44.967Z,9.70
2023-05-16T08:38:13.029Z,9.99
2023-05-16T08:40:43.882Z,9.60
2023-05-16T08:43:12.087Z,9.29
2023-05-16T08:45:40.227Z,9.35
2023-05-16T08:48:10.396Z,9.45
2023-05-16T08:50:38.770Z,9.47
2023-05-16T08:53:08.128Z,9.71
2023-05-16T08:55:36.592Z,9.59
2023-05-16T08:58:06.131Z,9.69
2023-05-16T09:00:34.192Z,9.65
2023-05-16T09:03:02.425Z,9.57
2023-05-16T09:05:31.041Z,9.93
2023-05-16T09:07:59.156Z,9.90
2023-05-16T09:10:27.315Z,9.78
2023-05-16T09:12:55.483Z,9.64
2023-05-16T09:15:24.910Z,9.71
2023-05-16T09:17:53.067Z,9.79
2023-05-16T09:20:23.861Z,9.42
2023-05-16T09:22:53.668Z,9.76
2023-05-16T09:25:30.130Z,9.94
2023-05-16T09:28:01.443Z,9.96
2023-05-16T09:30:32.177Z,10.01
2023-05-16T09:33:02.099Z,10.07
2023-05-16T09:35:44.270Z,10.31
2023-05-16T09:38:16.919Z,10.51
2023-05-16T09:40:45.253Z,9.95
2023-05-16T09:43:13.508Z,10.36
2023-05-16T09:45:46.722Z,10.26
2023-05-16T09:48:15.471Z,10.18
2023-05-16T09:50:47.788Z,10.32
2023-05-16T09:53:15.883Z,10.40
2023-05-16T09:55:44.055Z,10.15
2023-05-16T09:58:12.066Z,10.57
2023-05-16T10:00:40.180Z,10.56
2023-05-16T10:03:09.738Z,10.61
2023-05-16T10:05:37.892Z,10.85
2023-05-16T10:08:06.496Z,10.85
2023-05-16T10:10:36.849Z,10.57
2023-05-16T10:13:04.947Z,10.85
2023-05-16T10:15:33.129Z,11.20
2023-05-16T10:18:02.194Z,11.30
2023-05-16T10:20:31.722Z,11.21
2023-05-16T10:22:59.834Z,11.03
2023-05-16T10:25:30.643Z,10.91
2023-05-16T10:27:59.224Z,10.75
2023-05-16T10:30:27.409Z,10.70
2023-05-16T10:32:56.561Z,10.86
2023-05-16T10:35:24.831Z,10.77
2023-05-16T10:37:54.415Z,10.72
2023-05-16T10:40:22.679Z,10.59
2023-05-16T10:42:58.512Z,10.61
2023-05-16T10:45:27.117Z,10.80
2023-05-16T10:47:56.062Z,10.43
2023-05-16T10:50:39.576Z,10.78
2023-05-16T10:53:17.340Z,10.94
2023-05-16T10:55:52.431Z,10.54
2023-05-16T10:58:24.570Z,10.74
2023-05-16T11:01:16.800Z,10.77
2023-05-16T11:04:04.416Z,11.01
2023-05-16T11:06:36.286Z,10.99
2023-05-16T11:09:19.258Z,10.84
2023-05-16T11:11:50.439Z,11.14
2023-05-16T11:14:22.960Z,11.32
2023-05-16T11:16:54.259Z,11.46
2023-05-16T11:19:33.377Z,11.13
2023-05-16T11:22:23.885Z,11.68
2023-05-16T11:24:55.119Z,11.80
2023-05-16T11:27:24.872Z,11.67
2023-05-16T11:29:53.332Z,11.88
2023-05-16T11:32:27.121Z,11.57
2023-05-16T11:34:55.782Z,11.98
2023-05-16T11:37:24.159Z,11.61
2023-05-16T11:39:59.791Z,11.51
2023-05-16T11:42:31.500Z,11.40
2023-05-16T11:45:06.333Z,11.18
2023-05-16T11:47:34.488Z,10.81
2023-05-16T11:50:04.297Z,10.93
2023-05-16T11:52:33.154Z,10.85
2023-05-16T11:55:02.838Z,10.81
2023-05-16T11:57:30.954Z,11.00
2023-05-16T12:00:06.674Z,11.13
2023-05-16T12:02:34.963Z,10.87
2023-05-16T12:05:10.030Z,11.21
2023-05-16T12:07:38.540Z,11.13
2023-05-16T12:10:09.243Z,11.03
2023-05-16T12:12:37.407Z,11.18
2023-05-16T12:15:06.688Z,11.32
2023-05-16T12:17:34.866Z,11.39
2023-05-16T12:20:05.834Z,11.35
2023-05-16T12:23:09.186Z,11.38
2023-05-16T12:25:42.153Z,11.33
2023-05-16T12:28:10.474Z,11.23
2023-05-16T12:30:41.974Z,11.43
2023-05-16T12:33:10.725Z,11.49
2023-05-16T12:35:40.290Z,11.21
2023-05-16T12:38:08.733Z,11.47
2023-05-16T12:40:40.186Z,11.08
2023-05-16T12:43:14.567Z,11.20
2023-05-16T12:45:43.382Z,10.92
2023-05-16T12:48:15.112Z,11.11
2023-05-16T12:50:43.333Z,11.11
2023-05-16T12:53:13.045Z,10.99
2023-05-16T12:55:43.649Z,10.99
2023-05-16T12:58:14.770Z,11.15
2023-05-16T13:00:43.309Z,10.85
2023-05-16T13:03:16.438Z,10.79
2023-05-16T13:05:45.141Z,11.16
2023-05-16T13:08:13.550Z,11.19
2023-05-16T13:10:43.301Z,11.03
2023-05-16T13:13:13.692Z,11.10
2023-05-16T13:15:45.492Z,10.92
2023-05-16T13:18:13.740Z,10.93
2023-05-16T13:20:45.449Z,10.88
2023-05-16T13:23:13.711Z,11.17
2023-05-16T13:25:48.521Z,10.99
2023-05-16T13:28:19.930Z,10.95
2023-05-16T13:30:50.033Z,11.36
2023-05-16T13:33:20.586Z,10.99
2023-05-16T13:35:58.932Z,11.37
2023-05-16T13:38:31.888Z,11.03
2023-05-16T13:41:03.500Z,10.88
2023-05-16T13:43:31.613Z,10.85
2023-05-16T13:45:59.735Z,11.09
2023-05-16T13:48:28.160Z,11.02
2023-05-16T13:50:56.383Z,10.94
2023-05-16T13:53:24.642Z,10.91
2023-05-16T13:55:56.509Z,10.82
2023-05-16T13:58:27.236Z,10.97
2023-05-16T14:00:57.662Z,10.92
2023-05-16T14:03:28.703Z,10.72
2023-05-16T14:05:59.879Z,10.83
2023-05-16T14:08:28.247Z,10.88
2023-05-16T14:10:56.487Z,10.74
2023-05-16T14:13:27.205Z,11.02
2023-05-16T14:15:55.578Z,10.89
2023-05-16T14:18:23.887Z,11.05
2023-05-16T14:20:52.449Z,11.00
2023-05-16T14:23:22.134Z,11.17
2023-05-16T14:25:50.322Z,10.68
2023-05-16T14:28:18.322Z,10.83
2023-05-16T14:30:48.170Z,11.02
2023-05-16T14:33:16.694Z,11.03
2023-05-16T14:35:44.827Z,11.03
2023-05-16T14:38:14.677Z,10.65
2023-05-16T14:40:50.113Z,10.78
2023-05-16T14:43:18.574Z,10.76
2023-05-16T14:45:47.957Z,10.87
2023-05-16T14:48:17.260Z,11.21
2023-05-16T14:50:45.621Z,11.14
2023-05-16T14:53:13.716Z,10.78
2023-05-16T14:55:41.944Z,10.85
2023-05-16T14:58:10.116Z,11.08
2023-05-16T15:00:38.735Z,11.05
2023-05-16T15:03:08.230Z,11.07
2023-05-16T15:05:36.296Z,11.17
2023-05-16T15:08:04.311Z,11.18
2023-05-16T15:10:32.369Z,11.25
2023-05-16T15:13:00.530Z,11.28
2023-05-16T15:15:28.716Z,11.08
2023-05-16T15:17:56.823Z,11.42
2023-05-16T15:20:27.154Z,11.60
2023-05-16T15:22:55.677Z,11.52
2023-05-16T15:25:23.723Z,11.29
2023-05-16T15:27:51.843Z,11.19
2023-05-16T15:30:19.972Z,11.19
2023-05-16T15:32:48.082Z,11.31
2023-05-16T15:35:16.419Z,11.59
2023-05-16T15:37:45.863Z,11.22
2023-05-16T15:40:14.952Z,11.43
2023-05-16T15:42:44.362Z,11.40
2023-05-16T15:45:13.020Z,11.46
2023-05-16T15:47:41.757Z,11.62
2023-05-16T15:50:15.121Z,11.65
2023-05-16T15:52:43.633Z,11.40
2023-05-16T15:55:13.250Z,11.53
2023-05-16T15:57:42.510Z,11.61
2023-05-16T16:00:11.488Z,11.70
2023-05-16T16:02:45.016Z,11.77
2023-05-16T16:05:13.249Z,12.04
2023-05-16T16:07:41.372Z,12.19
2023-05-16T16:10:10.539Z,12.13
2023-05-16T16:12:40.819Z,12.21
2023-05-16T16:15:11.100Z,12.42
2023-05-16T16:17:39.259Z,12.37
2023-05-16T16:20:08.207Z,11.82
2023-05-16T16:22:36.438Z,12.24
2023-05-16T16:25:04.734Z,12.32
2023-05-16T16:27:32.839Z,12.26
2023-05-16T16:30:02.321Z,12.27
2023-05-16T16:32:30.619Z,12.24
2023-05-16T16:34:58.726Z,12.22
2023-05-16T16:37:26.904Z,12.39
2023-05-16T16:39:54.943Z,12.00
2023-05-16T16:42:25.342Z,12.02
2023-05-16T16:44:53.822Z,11.96
2023-05-16T16:47:23.577Z,12.12
2023-05-16T16:49:51.744Z,11.90
2023-05-16T16:52:19.908Z,11.68
2023-05-16T16:54:50.450Z,11.66
2023-05-16T16:57:21.794Z,11.78
2023-05-16T16:59:53.163Z,11.58
2023-05-16T17:02:21.535Z,11.69
2023-05-16T17:04:50.970Z,11.70
2023-05-16T17:07:19.077Z,11.95
2023-05-16T17:09:47.227Z,12.07
2023-05-16T17:12:19.076Z,12.03
2023-05-16T17:14:51.405Z,11.86
2023-05-16T17:17:19.723Z,11.61
2023-05-16T17:19:50.820Z,11.32
2023-05-16T17:22:24.266Z,11.26
2023-05-16T17:24:52.447Z,11.44
2023-05-16T17:27:37.227Z,11.46
2023-05-16T17:30:09.035Z,11.35
2023-05-16T17:32:37.492Z,11.48
2023-05-16T17:35:06.336Z,11.67
2023-05-16T17:37:42.851Z,11.54
2023-05-16T17:40:17.255Z,11.43
2023-05-16T17:42:46.155Z,11.95
2023-05-16T17:45:14.962Z,11.56
2023-05-16T17:47:43.517Z,11.49
2023-05-16T17:50:12.111Z,11.53
2023-05-16T17:52:41.636Z,11.76
2023-05-16T17:55:10.752Z,11.31
2023-05-16T17:57:39.008Z,11.39
2023-05-16T18:00:09.388Z,11.09
2023-05-16T18:02:39.975Z,11.47
2023-05-16T18:05:08.825Z,11.20
2023-05-16T18:07:38.213Z,11.05
2023-05-16T18:10:10.833Z,11.20
2023-05-16T18:12:39.574Z,11.51
2023-05-16T18:15:10.784Z,11.51
2023-05-16T18:17:38.950Z,11.09
2023-05-16T18:20:10.893Z,10.94
2023-05-16T18:22:39.138Z,10.76
2023-05-16T18:25:09.845Z,10.08
2023-05-16T18:27:38.073Z,9.85
2023-05-16T18:30:07.826Z,9.75
2023-05-16T18:32:36.633Z,9.95
2023-05-16T18:35:08.056Z,10.30
2023-05-16T18:37:36.630Z,10.10
2023-05-16T18:40:07.954Z,10.28
2023-05-16T18:42:37.695Z,10.14
2023-05-16T18:45:06.345Z,9.94
2023-05-16T18:47:34.631Z,9.84
2023-05-16T18:50:03.033Z,10.02
2023-05-16T18:52:31.266Z,10.21
2023-05-16T18:54:59.505Z,10.16
2023-05-16T18:57:28.242Z,9.79
2023-05-16T18:59:58.475Z,9.42
2023-05-16T19:02:37.751Z,9.36
2023-05-16T19:05:09.594Z,9.39
2023-05-16T19:07:39.632Z,9.13
2023-05-16T19:10:09.098Z,8.77
2023-05-16T19:12:37.234Z,8.04
2023-05-16T19:15:08.045Z,8.47
2023-05-16T19:17:36.326Z,8.47
2023-05-16T19:20:05.139Z,8.85
2023-05-16T19:22:33.334Z,8.84
2023-05-16T19:25:01.763Z,8.56
2023-05-16T19:27:30.082Z,8.26
2023-05-16T19:29:58.259Z,8.07
2023-05-16T19:32:27.801Z,7.95
2023-05-16T19:34:56.821Z,7.78
2023-05-16T19:37:24.997Z,7.69
2023-05-16T19:39:53.174Z,7.58
2023-05-16T19:42:21.275Z,7.67
2023-05-16T19:44:49.357Z,7.58
2023-05-16T19:47:17.565Z,7.96
2023-05-16T19:49:47.096Z,7.94
2023-05-16T19:52:15.181Z,7.87
2023-05-16T19:54:43.785Z,7.50
2023-05-16T19:57:11.975Z,7.48
2023-05-16T19:59:40.326Z,7.40
2023-05-16T20:02:08.551Z,7.69
2023-05-16T20:04:36.752Z,7.57
2023-05-16T20:07:07.582Z,7.57
2023-05-16T20:09:35.679Z,7.27
2023-05-16T20:12:04.083Z,7.08
2023-05-16T20:14:32.224Z,6.64
2023-05-16T20:17:00.403Z,7.02
2023-05-16T20:19:31.235Z,6.84
2023-05-16T20:22:01.707Z,6.24
2023-05-16T20:24:31.165Z,6.68
2023-05-16T20:26:59.227Z,6.92
2023-05-16T20:29:27.235Z,7.17
2023-05-16T20:31:55.556Z,7.23
2023-05-16T20:35:08.788Z,6.62
2023-05-16T20:37:37.988Z,6.77
2023-05-16T20:40:08.943Z,7.20
2023-05-16T20:42:37.586Z,7.25
2023-05-16T20:45:06.551Z,7.02
2023-05-16T20:47:34.582Z,7.01
2023-05-16T20:50:02.722Z,7.09
2023-05-16T20:52:30.892Z,6.87
2023-05-16T20:55:01.294Z,6.42
2023-05-16T20:57:30.819Z,6.51
2023-05-16T20:59:58.851Z,6.70
2023-05-16T21:02:26.927Z,6.57
2023-05-16T21:04:56.039Z,6.30
2023-05-16T21:07:24.221Z,6.56
2023-05-16T21:09:52.230Z,6.50
2023-05-16T21:12:20.253Z,6.24
2023-05-16T21:14:49.708Z,6.30
2023-05-16T21:17:17.819Z,6.33
2023-05-16T21:19:45.851Z,6.39
2023-05-16T21:22:13.991Z,6.34
2023-05-16T21:24:42.062Z,6.11
2023-05-16T21:27:10.072Z,6.23
2023-05-16T21:29:38.106Z,6.19
2023-05-16T21:32:09.238Z,5.95
2023-05-16T21:34:37.289Z,5.80
2023-05-16T21:37:07.356Z,5.78
2023-05-16T21:39:35.396Z,5.96
2023-05-16T21:42:03.547Z,5.66
2023-05-16T21:44:31.759Z,5.80
2023-05-16T21:46:59.726Z,5.99
2023-05-16T21:49:29.000Z,6.01
2023-05-16T21:51:56.944Z,5.86
2023-05-16T21:54:24.916Z,5.72
2023-05-16T21:56:52.878Z,5.85
2023-05-16T21:59:20.928Z,6.28
2023-05-16T22:01:48.930Z,6.84
2023-05-16T22:04:17.075Z,6.84
2023-05-16T22:06:46.709Z,6.74
2023-05-16T22:09:14.887Z,6.91
2023-05-16T22:11:42.993Z,7.00
2023-05-16T22:14:11.166Z,6.87
2023-05-16T22:16:39.255Z,6.58
2023-05-16T22:19:07.826Z,6.48
2023-05-16T22:21:36.150Z,6.51
2023-05-16T22:24:06.141Z,6.44
2023-05-16T22:26:34.176Z,6.42
2023-05-16T22:29:02.303Z,6.56
2023-05-16T22:31:30.348Z,6.50
2023-05-16T22:33:58.539Z,6.16
2023-05-16T22:36:26.738Z,6.24
2023-05-16T22:38:54.764Z,6.22
2023-05-16T22:41:24.197Z,6.03
2023-05-16T22:43:53.811Z,5.99
2023-05-16T22:46:21.872Z,6.09
2023-05-16T22:48:49.996Z,5.79
2023-05-16T22:51:18.106Z,5.96
2023-05-16T22:53:46.154Z,5.99
2023-05-16T22:56:14.308Z,5.83
2023-05-16T22:58:43.803Z,5.56
2023-05-16T23:01:11.825Z,5.78
2023-05-16T23:03:39.846Z,5.78
2023-05-16T23:06:08.147Z,5.87
2023-05-16T23:08:36.195Z,5.68
2023-05-16T23:11:04.261Z,5.31
2023-05-16T23:13:32.277Z,5.30
2023-05-16T23:16:01.785Z,5.53
2023-05-16T23:18:29.902Z,4.89
2023-05-16T23:20:58.075Z,4.66
2023-05-16T23:23:26.184Z,4.01
2023-05-16T23:25:54.477Z,4.25
2023-05-16T23:28:22.690Z,4.05
2023-05-16T23:30:51.313Z,4.04
2023-05-16T23:33:20.801Z,4.41
2023-05-16T23:35:48.985Z,4.10
2023-05-16T23:38:17.039Z,4.10
2023-05-16T23:40:45.069Z,4.00
2023-05-16T23:43:13.022Z,4.01
2023-05-16T23:45:41.077Z,4.45
2023-05-16T23:48:09.706Z,4.19
2023-05-16T23:50:39.130Z,4.54
2023-05-16T23:53:07.180Z,4.40
2023-05-16T23:55:35.334Z,4.31
2023-05-16T23:58:03.992Z,3.94
